Decoded Metar for LETU ( in ) (IATA:) | Meteo·Mobile Aviation Weather
aviador You're here:

LETU Decoded Metar

in
Report Time2018-09-20 06:30:00
UTC Time2018-09-20 06:50:38
Flight Rules vfr VFR
Wind240° at 05 kt
W.Rank240° ranks 7
Current wind is below 240° avg. (7.1)
Visibility9999 m
Phenomena:N/A
Clouds:Few 010 Hf
Expected CloudBase > 1,200 ft AGL from Temp-Dew spread
CeilingNone
Temp16°C
Dew Point13°C (83% RH)
AAT15.2°C
QNH1022 hPa
Raw Report
METAR LETU 200630Z AUTO 24005KT 9999 FEW010 16/13 Q1022=

Extra information for LETU:More info

Social comments